Time;durP1;ratioP1;P1;durP2;ratioP2;P2;SDS_P1;SDS_P2;PMS_P1;PMS_P2;Temp;Humidity;BMP_temperature;BMP_pressure;BME280_temperature;BME280_humidity;BME280_pressure;Samples;Min_cycle;Max_cycle;Signal;HPM_P1;HPM_P2
2022/01/13 00:01:44;;;;;;;49.80;18.37;;;;;;;-10.04;75.98;99361.86;1696148;85;21035;-78
2022/01/13 00:04:13;;;;;;;44.90;18.90;;;;;;;-10.02;75.97;99368.39;1696346;84;21036;-78
2022/01/13 00:06:40;;;;;;;44.45;18.87;;;;;;;-10.00;75.68;99374.52;1694734;84;21016;-78
2022/01/13 00:09:08;;;;;;;51.10;19.25;;;;;;;-9.99;75.54;99382.33;1690870;85;21442;-77
2022/01/13 00:11:35;;;;;;;41.05;17.42;;;;;;;-10.02;75.35;99388.50;1690883;84;21024;-77
2022/01/13 00:17:06;;;;;;;38.58;17.10;;;;;;;-10.04;75.44;99404.17;1694912;84;21495;-77
2022/01/13 00:21:51;;;;;;;64.58;24.37;;;;;;;-10.01;75.32;99403.52;1695952;85;21071;-77
2022/01/13 00:24:13;;;;;;;57.50;23.27;;;;;;;-10.04;75.25;99390.07;1695915;85;21086;-77
2022/01/13 00:26:41;;;;;;;53.35;22.98;;;;;;;-10.12;74.88;99401.41;1695858;85;20992;-77
2022/01/13 00:29:09;;;;;;;50.55;20.68;;;;;;;-10.20;74.79;99404.69;1695939;84;21026;-76
2022/01/13 00:31:40;;;;;;;52.93;19.70;;;;;;;-10.19;75.14;99412.00;1696120;85;20981;-77
2022/01/13 00:34:06;;;;;;;41.50;16.85;;;;;;;-10.18;75.25;99404.40;1692789;84;21454;-76
2022/01/13 00:36:39;;;;;;;49.10;17.30;;;;;;;-10.18;75.07;99399.68;1691119;85;21038;-79
2022/01/13 00:39:09;;;;;;;39.30;14.90;;;;;;;-10.11;75.38;99405.76;1693824;84;20997;-77
2022/01/13 00:41:35;;;;;;;36.90;14.93;;;;;;;-10.09;75.43;99409.35;1696294;84;21465;-78
2022/01/13 00:44:06;;;;;;;37.95;14.85;;;;;;;-10.10;75.11;99408.45;1696454;84;21076;-77
2022/01/13 00:46:46;;;;;;;38.85;16.37;;;;;;;-10.11;75.29;99411.80;1696197;85;21014;-77
2022/01/13 00:49:10;;;;;;;41.92;16.17;;;;;;;-10.05;75.65;99415.22;1695402;85;21030;-77
2022/01/13 00:51:38;;;;;;;39.92;16.70;;;;;;;-10.00;75.51;99410.42;1696213;85;21038;-78
2022/01/13 00:54:06;;;;;;;39.27;15.20;;;;;;;-10.01;75.35;99409.92;1696141;85;21503;-77
2022/01/13 00:56:35;;;;;;;44.63;17.00;;;;;;;-9.95;75.44;99412.94;1696018;85;21460;-77
2022/01/13 00:59:07;;;;;;;43.48;16.35;;;;;;;-9.95;75.48;99419.34;1690019;85;21020;-77
2022/01/13 01:01:36;;;;;;;44.05;16.67;;;;;;;-9.99;75.45;99418.23;1690533;85;21509;-77
2022/01/13 01:04:04;;;;;;;42.58;16.50;;;;;;;-10.00;75.56;99406.58;1668170;86;21035;-77
2022/01/13 01:06:32;;;;;;;33.60;14.07;;;;;;;-10.02;75.56;99406.86;1668261;86;21032;-77
2022/01/13 01:08:59;;;;;;;43.95;16.10;;;;;;;-10.06;75.80;99401.86;1668223;86;21099;-77
2022/01/13 01:11:26;;;;;;;39.27;16.82;;;;;;;-10.09;75.32;99405.09;1679470;85;21449;-78
2022/01/13 01:13:56;;;;;;;42.30;16.00;;;;;;;-10.07;75.43;99401.37;1696474;85;21023;-78
2022/01/13 01:16:25;;;;;;;30.02;12.30;;;;;;;-10.07;75.48;99397.15;1695993;84;21460;-78
2022/01/13 01:19:05;;;;;;;34.23;14.00;;;;;;;-10.07;75.37;99389.45;1696135;85;21025;-78
2022/01/13 01:21:47;;;;;;;31.68;12.85;;;;;;;-10.09;75.30;99381.14;1696431;84;21162;-78
2022/01/13 01:24:26;;;;;;;30.75;14.03;;;;;;;-10.15;75.17;99380.66;1694303;84;21462;-78
2022/01/13 01:26:51;;;;;;;31.35;13.55;;;;;;;-10.17;75.31;99396.33;1694234;84;21024;-77
2022/01/13 01:29:35;;;;;;;29.45;11.78;;;;;;;-10.26;75.27;99394.84;1696014;84;21040;-77
2022/01/13 01:31:56;;;;;;;32.48;12.68;;;;;;;-10.21;75.41;99390.96;1695505;85;21030;-77
2022/01/13 01:36:59;;;;;;;41.50;15.55;;;;;;;-10.14;75.35;99386.32;1685349;84;20974;-77
2022/01/13 01:39:26;;;;;;;41.35;16.80;;;;;;;-10.19;75.02;99398.77;1695190;85;21455;-77
2022/01/13 01:41:56;;;;;;;36.28;15.98;;;;;;;-10.23;74.76;99398.03;1696100;85;21034;-77
2022/01/13 01:44:34;;;;;;;43.40;17.37;;;;;;;-10.29;74.68;99395.92;1696070;85;20994;-77
2022/01/13 01:47:00;;;;;;;43.13;18.87;;;;;;;-10.29;74.83;99397.20;1696042;84;21052;-77
2022/01/13 01:49:28;;;;;;;47.25;17.23;;;;;;;-10.28;74.77;99401.92;1696243;84;21012;-77
2022/01/13 01:51:59;;;;;;;43.60;16.82;;;;;;;-10.35;74.55;99409.16;1696207;84;21095;-77
2022/01/13 01:54:28;;;;;;;34.50;14.50;;;;;;;-10.32;74.75;99412.34;1696269;84;20980;-77
2022/01/13 01:56:56;;;;;;;37.55;14.50;;;;;;;-10.37;74.45;99405.97;1696262;84;21103;-77
2022/01/13 01:59:27;;;;;;;41.73;16.48;;;;;;;-10.36;74.63;99408.66;1689855;84;20992;-77
2022/01/13 02:01:53;;;;;;;32.75;14.45;;;;;;;-10.30;74.60;99395.80;1667873;85;22745;-76
2022/01/13 02:04:24;;;;;;;40.45;15.43;;;;;;;-10.29;74.52;99410.02;1695928;84;21043;-77
2022/01/13 02:06:50;;;;;;;37.60;13.50;;;;;;;-10.32;74.43;99411.05;1695929;85;21041;-77
2022/01/13 02:09:18;;;;;;;35.95;13.83;;;;;;;-10.34;74.58;99412.22;1696037;85;21092;-77
2022/01/13 02:11:52;;;;;;;33.02;13.40;;;;;;;-10.29;74.77;99397.58;1696295;85;21103;-76
2022/01/13 02:17:05;;;;;;;31.27;13.75;;;;;;;-10.42;74.66;99407.29;1692925;84;21106;-78
2022/01/13 02:19:36;;;;;;;31.55;12.80;;;;;;;-10.56;74.79;99407.15;1686005;85;21070;-77
2022/01/13 02:22:03;;;;;;;29.15;12.85;;;;;;;-10.59;74.92;99416.28;1684487;85;20998;-77
2022/01/13 02:24:30;;;;;;;32.23;13.68;;;;;;;-10.53;75.06;99425.34;1664664;86;21075;-77
2022/01/13 02:26:56;;;;;;;36.15;13.55;;;;;;;-10.49;75.02;99423.90;1669577;86;21007;-77
2022/01/13 02:29:23;;;;;;;30.35;11.83;;;;;;;-10.47;74.88;99433.48;1674418;85;21007;-77
2022/01/13 02:31:51;;;;;;;31.00;12.80;;;;;;;-10.49;74.79;99430.30;1686103;85;21081;-77
2022/01/13 02:34:20;;;;;;;33.15;13.45;;;;;;;-10.50;75.29;99431.09;1674808;85;21126;-77
2022/01/13 02:36:53;;;;;;;33.00;12.93;;;;;;;-10.50;75.05;99437.09;1669643;86;21027;-77
2022/01/13 02:39:29;;;;;;;30.40;11.35;;;;;;;-10.47;75.12;99433.48;1669655;86;21087;-77
2022/01/13 02:41:58;;;;;;;27.90;11.90;;;;;;;-10.46;74.98;99442.08;1669480;86;21449;-77
2022/01/13 02:44:25;;;;;;;24.32;10.45;;;;;;;-10.43;75.04;99445.27;1676374;85;21022;-77
2022/01/13 02:47:07;;;;;;;24.60;9.53;;;;;;;-10.42;75.09;99436.39;1686242;85;21380;-77
2022/01/13 02:49:24;;;;;;;23.02;8.83;;;;;;;-10.40;75.13;99441.23;1683864;85;21026;-77
2022/01/13 02:51:53;;;;;;;24.07;10.03;;;;;;;-10.39;75.07;99442.14;1686134;85;21010;-78
2022/01/13 02:54:22;;;;;;;26.27;10.53;;;;;;;-10.41;74.93;99460.33;1685965;85;21121;-77
2022/01/13 02:56:48;;;;;;;22.07;8.75;;;;;;;-10.41;75.03;99460.33;1681092;85;20995;-77
2022/01/13 02:59:15;;;;;;;23.80;9.70;;;;;;;-10.42;74.92;99453.42;1669475;86;21496;-77
2022/01/13 03:01:42;;;;;;;25.00;10.68;;;;;;;-10.41;74.89;99451.36;1669432;86;21079;-78
2022/01/13 03:04:10;;;;;;;23.70;8.88;;;;;;;-10.41;74.94;99438.55;1669484;86;21530;-78
2022/01/13 03:06:40;;;;;;;21.55;8.98;;;;;;;-10.44;74.84;99442.20;1669668;85;21770;-77
2022/01/13 03:09:15;;;;;;;20.60;9.53;;;;;;;-10.46;74.82;99438.24;1669379;86;21031;-77
2022/01/13 03:11:44;;;;;;;23.20;9.78;;;;;;;-10.44;74.89;99439.64;1673474;85;21002;-77
2022/01/13 03:14:12;;;;;;;25.40;10.38;;;;;;;-10.38;74.98;99443.92;1685963;85;21081;-77
2022/01/13 03:16:42;;;;;;;24.27;9.80;;;;;;;-10.37;74.91;99441.86;1686481;84;20975;-77
2022/01/13 03:19:10;;;;;;;23.50;9.65;;;;;;;-10.36;74.84;99433.38;1695916;85;21077;-78
2022/01/13 03:21:37;;;;;;;21.50;9.15;;;;;;;-10.35;74.79;99428.75;1695885;85;21085;-78
2022/01/13 03:24:09;;;;;;;25.08;9.90;;;;;;;-10.35;74.74;99432.22;1695225;84;21081;-78
2022/01/13 03:26:35;;;;;;;26.07;9.55;;;;;;;-10.30;74.79;99423.59;1695094;83;21044;-78
2022/01/13 03:29:15;;;;;;;16.42;7.75;;;;;;;-10.30;74.80;99415.90;1692377;84;21429;-77
2022/01/13 03:31:33;;;;;;;21.10;7.75;;;;;;;-10.39;74.14;99412.66;1666964;86;21476;-76
2022/01/13 03:33:59;;;;;;;21.12;8.78;;;;;;;-10.47;74.24;99414.27;1672548;84;21060;-76
2022/01/13 03:36:27;;;;;;;19.80;9.53;;;;;;;-10.51;74.34;99415.21;1682423;85;20961;-76
2022/01/13 03:38:54;;;;;;;21.45;8.10;;;;;;;-10.54;74.49;99409.47;1683650;84;21438;-76
2022/01/13 03:41:22;;;;;;;21.60;8.25;;;;;;;-10.55;74.39;99406.37;1696148;85;21000;-76
2022/01/13 03:43:52;;;;;;;18.95;8.43;;;;;;;-10.57;74.46;99407.94;1696122;84;20988;-76
2022/01/13 03:46:19;;;;;;;19.25;8.38;;;;;;;-10.53;74.60;99407.77;1696266;85;21000;-76
2022/01/13 03:48:45;;;;;;;17.82;6.78;;;;;;;-10.54;74.40;99420.09;1696050;85;21067;-76
2022/01/13 03:51:12;;;;;;;23.47;8.78;;;;;;;-10.66;74.33;99420.94;1696206;84;21012;-76
2022/01/13 03:54:18;;;;;;;15.90;7.35;;;;;;;-10.62;74.45;99428.47;1696123;84;20996;-76
2022/01/13 03:57:13;;;;;;;20.05;6.95;;;;;;;-10.73;74.75;99428.91;1696368;85;21476;-76
2022/01/13 03:59:52;;;;;;;27.13;9.35;;;;;;;-10.70;74.51;99432.09;1696452;85;21013;-78
2022/01/13 04:02:19;;;;;;;23.83;9.08;;;;;;;-10.67;74.62;99446.44;1696371;85;21440;-77
2022/01/13 04:04:48;;;;;;;21.57;9.63;;;;;;;-10.67;74.46;99434.91;1696121;84;21047;-77
2022/01/13 04:07:22;;;;;;;29.42;10.18;;;;;;;-10.70;74.52;99438.13;1696169;84;21572;-77
2022/01/13 04:09:57;;;;;;;17.23;7.10;;;;;;;-10.66;74.77;99445.28;1696315;85;21443;-77
2022/01/13 04:12:26;;;;;;;21.10;8.30;;;;;;;-10.64;74.53;99449.25;1696137;85;21091;-77
2022/01/13 04:14:56;;;;;;;24.12;9.48;;;;;;;-10.64;74.62;99456.52;1696095;85;21042;-77
2022/01/13 04:17:24;;;;;;;19.67;8.28;;;;;;;-10.64;74.67;99458.22;1693363;84;21098;-76
2022/01/13 04:19:51;;;;;;;18.40;8.50;;;;;;;-10.61;74.69;99463.55;1686127;85;21475;-76
2022/01/13 04:22:19;;;;;;;21.00;8.78;;;;;;;-10.57;74.70;99468.16;1686207;85;21003;-77
2022/01/13 04:24:49;;;;;;;20.82;9.08;;;;;;;-10.51;74.81;99479.28;1675814;85;21063;-77
2022/01/13 04:27:32;;;;;;;18.70;8.43;;;;;;;-10.51;74.78;99485.69;1650725;85;21426;-77
2022/01/13 04:30:23;;;;;;;27.82;8.85;;;;;;;-10.49;74.67;99502.06;1642367;87;21052;-78
2022/01/13 04:32:29;;;;;;;17.60;8.43;;;;;;;-10.46;74.76;99516.41;1639008;87;21468;-77
2022/01/13 04:34:55;;;;;;;24.63;8.85;;;;;;;-10.43;74.76;99501.22;1648438;85;21028;-77
2022/01/13 04:37:22;;;;;;;19.00;8.15;;;;;;;-10.39;74.63;99501.09;1644707;87;20973;-77
2022/01/13 04:39:48;;;;;;;19.17;7.05;;;;;;;-10.37;74.56;99492.75;1663939;85;21026;-77
2022/01/13 04:42:15;;;;;;;19.40;7.72;;;;;;;-10.42;74.43;99497.00;1686287;85;21113;-77
2022/01/13 04:44:41;;;;;;;17.80;8.05;;;;;;;-10.40;74.52;99480.96;1686376;85;21065;-77
2022/01/13 04:47:07;;;;;;;18.37;7.75;;;;;;;-10.45;74.43;99482.31;1671533;85;21024;-77
2022/01/13 04:49:34;;;;;;;23.70;8.88;;;;;;;-10.43;74.30;99495.25;1642541;87;21473;-77
2022/01/13 04:52:00;;;;;;;21.60;7.78;;;;;;;-10.51;74.19;99489.53;1642608;87;21027;-77
2022/01/13 04:54:27;;;;;;;20.60;9.05;;;;;;;-10.52;74.33;99502.72;1662117;85;21070;-77
2022/01/13 04:57:14;;;;;;;19.92;8.05;;;;;;;-10.47;74.48;99506.53;1669513;86;21449;-77
2022/01/13 04:59:34;;;;;;;19.75;7.60;;;;;;;-10.44;74.38;99512.28;1670632;85;22210;-77
2022/01/13 05:02:01;;;;;;;21.57;7.65;;;;;;;-10.34;74.53;99521.56;1671549;85;21075;-77
2022/01/13 05:04:27;;;;;;;18.05;7.87;;;;;;;-10.27;74.61;99515.22;1669444;86;21051;-78
2022/01/13 05:06:53;;;;;;;20.80;7.65;;;;;;;-10.21;74.45;99518.28;1669536;86;21409;-78
2022/01/13 05:09:20;;;;;;;20.90;8.40;;;;;;;-10.16;74.38;99519.91;1680260;85;21058;-78
2022/01/13 05:11:46;;;;;;;16.17;7.05;;;;;;;-10.13;74.40;99513.34;1686197;85;21672;-78
2022/01/13 05:14:13;;;;;;;17.00;7.92;;;;;;;-10.09;74.36;99511.92;1686136;85;21055;-78
2022/01/13 05:17:02;;;;;;;17.60;7.35;;;;;;;-10.06;74.26;99504.45;1686242;85;21010;-78
2022/01/13 05:19:33;;;;;;;19.02;7.05;;;;;;;-10.01;74.07;99495.84;1677791;84;21450;-80
2022/01/13 05:24:26;;;;;;;23.83;7.00;;;;;;;-10.12;73.44;99483.09;1682125;85;20999;-76
2022/01/13 05:26:53;;;;;;;15.45;7.12;;;;;;;-10.16;73.38;99477.59;1685842;85;20967;-77
2022/01/13 05:29:20;;;;;;;14.65;7.20;;;;;;;-10.32;73.36;99478.08;1667167;85;21067;-77
2022/01/13 05:31:49;;;;;;;15.68;6.97;;;;;;;-10.37;73.47;99479.02;1657092;87;21502;-77
2022/01/13 05:34:18;;;;;;;16.42;7.67;;;;;;;-10.45;73.69;99468.59;1654517;85;21502;-77
2022/01/13 05:36:45;;;;;;;19.48;7.92;;;;;;;-10.52;73.60;99459.52;1640020;87;21016;-77
2022/01/13 05:39:11;;;;;;;18.20;8.13;;;;;;;-10.58;74.02;99477.90;1637792;87;21069;-77
2022/01/13 05:41:39;;;;;;;25.70;8.08;;;;;;;-10.64;74.26;99476.15;1623036;88;21036;-77
2022/01/13 05:44:06;;;;;;;18.05;7.90;;;;;;;-10.66;74.25;99490.11;1637307;88;21060;-77
2022/01/13 05:46:32;;;;;;;20.72;8.05;;;;;;;-10.67;74.59;99491.27;1637356;87;21028;-77
2022/01/13 05:48:59;;;;;;;18.77;7.87;;;;;;;-10.61;74.52;99488.80;1637426;88;21446;-77
2022/01/13 05:51:25;;;;;;;14.83;6.42;;;;;;;-10.64;74.55;99487.27;1637344;87;21127;-77
2022/01/13 05:53:52;;;;;;;20.97;9.43;;;;;;;-10.59;74.52;99491.50;1627619;87;21035;-77
2022/01/13 05:56:18;;;;;;;24.52;8.88;;;;;;;-10.55;74.54;99487.50;1623040;88;21446;-77
2022/01/13 05:58:45;;;;;;;17.45;8.03;;;;;;;-10.53;74.30;99498.37;1650908;87;21069;-76
2022/01/13 06:01:11;;;;;;;21.48;7.92;;;;;;;-10.50;74.37;99508.84;1643434;87;21028;-76
2022/01/13 06:03:38;;;;;;;18.50;7.53;;;;;;;-10.47;74.35;99507.81;1635707;88;21151;-76
2022/01/13 06:06:04;;;;;;;19.82;7.12;;;;;;;-10.45;74.29;99503.19;1636084;88;21100;-77
2022/01/13 06:08:31;;;;;;;18.95;6.00;;;;;;;-10.44;73.95;99494.34;1637426;87;21033;-77
2022/01/13 06:10:57;;;;;;;11.88;5.80;;;;;;;-10.50;73.54;99501.16;1636907;87;21071;-77
2022/01/13 06:13:23;;;;;;;16.40;7.08;;;;;;;-10.55;73.47;99502.88;1635861;88;21041;-77
2022/01/13 06:15:50;;;;;;;15.60;6.45;;;;;;;-10.56;73.65;99516.05;1640350;87;21092;-77
2022/01/13 06:18:16;;;;;;;16.02;6.95;;;;;;;-10.63;73.62;99506.11;1648765;86;21045;-78
2022/01/13 06:20:44;;;;;;;17.48;6.90;;;;;;;-10.64;73.73;99501.36;1660480;86;21450;-78
2022/01/13 06:23:15;;;;;;;19.50;6.62;;;;;;;-10.62;73.79;99511.37;1662064;86;21135;-78
2022/01/13 06:25:41;;;;;;;23.62;8.05;;;;;;;-10.61;73.64;99517.36;1662704;86;21061;-78
2022/01/13 06:28:08;;;;;;;15.00;6.35;;;;;;;-10.59;73.61;99504.30;1662779;86;21020;-78
2022/01/13 06:30:34;;;;;;;14.80;5.95;;;;;;;-10.57;73.63;99497.99;1662477;86;21001;-78
2022/01/13 06:33:02;;;;;;;17.87;7.78;;;;;;;-10.58;73.73;99479.56;1695801;84;21056;-78
2022/01/13 06:35:29;;;;;;;17.02;7.70;;;;;;;-10.54;73.75;99470.97;1682468;84;20976;-78
2022/01/13 06:37:55;;;;;;;16.95;7.22;;;;;;;-10.51;73.70;99468.63;1690128;85;21056;-78
2022/01/13 06:40:24;;;;;;;21.68;9.00;;;;;;;-10.50;73.57;99486.19;1696106;85;21445;-78
2022/01/13 06:42:51;;;;;;;22.90;10.50;;;;;;;-10.51;73.54;99481.43;1696229;85;21083;-78
2022/01/13 06:45:17;;;;;;;17.60;8.13;;;;;;;-10.47;73.69;99469.37;1696381;85;21023;-78
2022/01/13 06:47:44;;;;;;;19.12;7.40;;;;;;;-10.48;73.54;99476.94;1696226;85;21032;-78
2022/01/13 06:50:13;;;;;;;17.92;5.97;;;;;;;-10.47;73.61;99450.15;1696069;84;21512;-78
2022/01/13 06:52:40;;;;;;;16.90;6.33;;;;;;;-10.40;73.58;99456.98;1695043;85;21027;-78
2022/01/13 06:55:07;;;;;;;14.60;7.30;;;;;;;-10.35;73.52;99460.42;1695219;85;21037;-78
2022/01/13 06:57:34;;;;;;;16.52;7.00;;;;;;;-10.31;73.53;99470.92;1694848;85;21058;-78
2022/01/13 07:00:03;;;;;;;22.55;7.45;;;;;;;-10.25;73.76;99479.08;1695015;85;21461;-77
2022/01/13 07:02:31;;;;;;;20.50;7.58;;;;;;;-10.12;73.86;99466.43;1683433;85;21013;-75
2022/01/13 07:04:57;;;;;;;17.95;7.58;;;;;;;-9.97;73.87;99478.22;1682336;85;21147;-77
2022/01/13 07:07:25;;;;;;;18.15;8.55;;;;;;;-9.84;73.94;99476.60;1685895;83;21518;-77
2022/01/13 07:09:53;;;;;;;21.55;8.30;;;;;;;-9.69;73.95;99480.31;1688177;84;21044;-76
2022/01/13 07:12:19;;;;;;;17.73;8.45;;;;;;;-9.56;73.44;99486.34;1695469;84;21035;-76
2022/01/13 07:14:46;;;;;;;21.82;9.13;;;;;;;-9.48;73.48;99498.08;1694432;85;21030;-77
2022/01/13 07:17:12;;;;;;;20.45;8.58;;;;;;;-9.42;73.32;99501.09;1688984;83;21043;-77
2022/01/13 07:19:39;;;;;;;23.17;9.43;;;;;;;-9.30;73.59;99506.25;1666093;85;21512;-77
2022/01/13 07:22:06;;;;;;;24.25;9.63;;;;;;;-9.17;73.20;99515.73;1680574;85;21098;-76
2022/01/13 07:24:32;;;;;;;22.82;10.35;;;;;;;-9.03;72.84;99521.00;1678982;85;21051;-77
2022/01/13 07:26:59;;;;;;;22.37;10.50;;;;;;;-8.94;72.88;99536.19;1677548;85;21457;-77
2022/01/13 07:29:25;;;;;;;25.72;11.53;;;;;;;-8.83;72.88;99538.26;1686825;85;21051;-77
2022/01/13 07:31:52;;;;;;;25.62;10.53;;;;;;;-8.73;72.52;99543.28;1684853;85;21052;-77
2022/01/13 07:34:19;;;;;;;21.73;10.80;;;;;;;-8.64;71.79;99555.52;1686551;85;21001;-77
2022/01/13 07:36:46;;;;;;;28.23;10.98;;;;;;;-8.58;71.84;99565.73;1686810;85;21024;-77
2022/01/13 07:39:12;;;;;;;30.20;11.60;;;;;;;-8.55;70.98;99574.96;1685433;85;21441;-77
2022/01/13 07:41:39;;;;;;;30.80;11.15;;;;;;;-8.59;70.80;99574.23;1687142;84;21024;-77
2022/01/13 07:44:06;;;;;;;32.58;12.78;;;;;;;-8.54;71.78;99575.45;1687221;85;20996;-77
2022/01/13 07:46:33;;;;;;;26.77;12.23;;;;;;;-8.40;72.03;99573.83;1687226;85;21097;-77
2022/01/13 07:49:00;;;;;;;27.70;11.90;;;;;;;-8.29;71.84;99591.32;1687037;84;21628;-77
2022/01/13 07:51:28;;;;;;;27.02;10.85;;;;;;;-8.20;71.71;99604.84;1687437;85;20982;-76
2022/01/13 07:53:58;;;;;;;23.25;10.23;;;;;;;-8.13;72.02;99610.03;1687495;85;20997;-77
2022/01/13 07:56:25;;;;;;;20.35;10.08;;;;;;;-8.00;72.07;99624.66;1675711;85;21008;-76
2022/01/13 07:58:51;;;;;;;23.70;10.20;;;;;;;-7.91;71.81;99607.67;1667047;85;20980;-77
2022/01/13 08:01:18;;;;;;;23.42;10.30;;;;;;;-7.92;70.30;99601.66;1675383;85;21024;-78
2022/01/13 08:03:44;;;;;;;22.17;9.50;;;;;;;-7.82;70.80;99588.63;1667096;85;21143;-75
2022/01/13 08:06:11;;;;;;;22.80;10.08;;;;;;;-7.74;70.14;99577.58;1687357;85;21357;-76
2022/01/13 08:08:38;;;;;;;25.08;10.72;;;;;;;-7.67;69.32;99557.02;1687271;85;21107;-76
2022/01/13 08:11:07;;;;;;;21.80;10.48;;;;;;;-7.59;70.48;99545.56;1687389;84;20984;-79
2022/01/13 08:13:35;;;;;;;25.90;11.38;;;;;;;-7.45;70.72;99545.58;1687247;85;21012;-75
2022/01/13 08:16:06;;;;;;;32.75;14.80;;;;;;;-7.34;70.50;99548.50;1687418;85;20969;-76
2022/01/13 08:21:16;;;;;;;29.27;12.25;;;;;;;-7.38;67.96;99549.46;1686717;84;21446;-75
2022/01/13 08:23:42;;;;;;;27.37;11.70;;;;;;;-7.40;68.43;99544.20;1687342;85;21016;-74
2022/01/13 08:26:10;;;;;;;30.52;11.95;;;;;;;-7.46;68.39;99541.22;1687032;85;21068;-75
2022/01/13 08:28:36;;;;;;;30.70;12.05;;;;;;;-7.47;68.94;99532.59;1687331;85;21044;-75
2022/01/13 08:31:04;;;;;;;19.85;9.38;;;;;;;-7.46;68.46;99541.22;1687332;85;21047;-76
2022/01/13 08:33:32;;;;;;;24.82;10.48;;;;;;;-7.46;68.66;99546.38;1687172;85;21036;-76
2022/01/13 08:35:59;;;;;;;24.05;9.33;;;;;;;-7.37;68.77;99547.38;1687364;85;21105;-74
2022/01/13 08:38:25;;;;;;;22.73;9.43;;;;;;;-7.25;69.25;99543.44;1686906;85;21078;-75
2022/01/13 08:40:59;;;;;;;22.95;10.30;;;;;;;-7.14;68.05;99542.48;1686783;85;21427;-78
2022/01/13 08:43:28;;;;;;;21.85;10.80;;;;;;;-6.97;69.01;99542.31;1686827;85;21055;-74
2022/01/13 08:45:56;;;;;;;24.50;10.00;;;;;;;-6.80;68.93;99541.21;1682248;85;21054;-79
2022/01/13 08:48:22;;;;;;;23.73;11.95;;;;;;;-6.64;68.69;99544.39;1683018;85;21442;-79
2022/01/13 08:50:49;;;;;;;21.10;9.70;;;;;;;-6.52;68.58;99554.60;1687357;85;20990;-78
2022/01/13 08:53:17;;;;;;;21.45;9.20;;;;;;;-6.42;68.54;99562.12;1687276;85;21511;-78
2022/01/13 08:55:45;;;;;;;22.50;9.50;;;;;;;-6.33;68.43;99561.80;1687292;85;21051;-78
2022/01/13 08:58:12;;;;;;;20.20;8.98;;;;;;;-6.26;68.54;99559.22;1687599;85;20968;-78
2022/01/13 09:00:38;;;;;;;21.00;9.43;;;;;;;-6.19;68.60;99564.38;1687122;85;21055;-79
2022/01/13 09:03:07;;;;;;;25.60;13.13;;;;;;;-6.09;67.80;99571.89;1687162;85;21465;-79
2022/01/13 09:05:36;;;;;;;40.75;17.52;;;;;;;-5.98;68.27;99570.83;1687429;85;21430;-78
2022/01/13 09:08:05;;;;;;;36.40;16.80;;;;;;;-5.93;67.57;99568.93;1686981;85;21056;-79
2022/01/13 09:10:32;;;;;;;32.93;14.38;;;;;;;-5.91;67.80;99575.06;1687400;84;21044;-79
2022/01/13 09:12:59;;;;;;;32.48;14.30;;;;;;;-5.81;67.93;99563.24;1687536;84;21012;-78
2022/01/13 09:15:38;;;;;;;30.45;15.85;;;;;;;-5.75;67.61;99567.87;1687538;84;21029;-78
2022/01/13 09:18:11;;;;;;;38.95;14.87;;;;;;;-5.76;67.84;99575.13;1687511;85;21402;-79
2022/01/13 09:20:40;;;;;;;30.97;13.53;;;;;;;-5.69;68.16;99573.44;1687559;85;21387;-78
2022/01/13 09:23:07;;;;;;;35.88;14.30;;;;;;;-5.51;67.81;99569.77;1703812;82;21067;-78
2022/01/13 09:25:35;;;;;;;24.87;12.15;;;;;;;-5.36;67.82;99572.78;1699208;84;21047;-77
2022/01/13 09:28:06;;;;;;;29.12;12.45;;;;;;;-5.28;67.04;99575.83;1696417;84;21003;-77
2022/01/13 09:30:33;;;;;;;25.75;12.43;;;;;;;-5.21;66.87;99567.23;1697824;84;21433;-78
2022/01/13 09:33:00;;;;;;;26.97;12.15;;;;;;;-5.11;67.23;99553.13;1697225;84;21429;-78
2022/01/13 09:35:26;;;;;;;34.03;14.05;;;;;;;-5.00;66.60;99545.10;1698997;84;21067;-79
2022/01/13 09:37:53;;;;;;;30.32;11.95;;;;;;;-4.94;66.79;99532.12;1699019;84;20992;-80
2022/01/13 09:40:20;;;;;;;27.02;13.18;;;;;;;-4.95;66.91;99532.03;1699115;84;21075;-79
2022/01/13 09:42:46;;;;;;;32.17;13.65;;;;;;;-4.91;66.58;99518.09;1698342;83;21004;-78
2022/01/13 09:45:16;;;;;;;35.50;13.45;;;;;;;-4.93;66.84;99512.34;1669470;84;21035;-78
2022/01/13 09:47:46;;;;;;;29.70;14.13;;;;;;;-4.89;67.15;99510.42;1691869;84;21012;-78
2022/01/13 09:50:18;;;;;;;27.42;13.53;;;;;;;-4.80;66.90;99499.70;1691471;84;20967;-78
2022/01/13 09:52:46;;;;;;;33.02;13.40;;;;;;;-4.74;65.95;99492.70;1690237;84;21017;-78
2022/01/13 09:55:15;;;;;;;31.27;14.05;;;;;;;-4.74;65.66;99487.10;1692092;84;21028;-78
2022/01/13 09:57:48;;;;;;;27.55;12.50;;;;;;;-4.69;65.73;99483.08;1692365;84;21414;-79
2022/01/13 10:00:19;;;;;;;30.30;12.85;;;;;;;-4.65;65.91;99482.86;1692397;84;21024;-79
2022/01/13 10:02:47;;;;;;;32.17;13.20;;;;;;;-4.59;66.27;99474.14;1691765;83;21017;-78
2022/01/13 10:05:17;;;;;;;32.58;13.90;;;;;;;-4.53;65.61;99468.42;1692918;84;21328;-78
2022/01/13 10:07:47;;;;;;;35.70;14.83;;;;;;;-4.47;65.81;99467.45;1672522;84;21055;-77
2022/01/13 10:10:17;;;;;;;35.20;15.03;;;;;;;-4.42;65.73;99470.28;1688203;84;20980;-77
2022/01/13 10:12:47;;;;;;;35.68;16.27;;;;;;;-4.27;66.28;99476.27;1689631;84;21401;-77
2022/01/13 10:18:23;;;;;;;33.18;14.13;;;;;;;-3.76;66.05;99466.42;1702410;83;21091;-77
2022/01/13 10:21:09;;;;;;;35.45;15.70;;;;;;;-3.51;65.43;99469.36;1751245;80;21024;-77
2022/01/13 10:23:36;;;;;;;39.42;16.40;;;;;;;-3.39;65.19;99463.52;1757732;80;21154;-78
2022/01/13 10:26:12;;;;;;;35.43;15.35;;;;;;;-3.25;64.98;99460.69;1751410;80;21389;-77
2022/01/13 10:28:39;;;;;;;35.00;15.03;;;;;;;-3.14;64.71;99466.02;1758447;80;21019;-77
2022/01/13 10:31:06;;;;;;;36.63;16.10;;;;;;;-3.03;65.22;99466.95;1753895;80;20996;-77
2022/01/13 10:33:36;;;;;;;36.30;15.00;;;;;;;-2.81;64.79;99470.17;1750415;80;21039;-77
2022/01/13 10:36:12;;;;;;;32.00;14.85;;;;;;;-2.67;63.55;99467.83;1755329;80;21472;-77
2022/01/13 10:38:55;;;;;;;37.45;16.60;;;;;;;-2.66;63.82;99472.63;1759375;80;21386;-77
2022/01/13 10:41:50;;;;;;;40.58;17.65;;;;;;;-2.65;63.67;99473.97;1757831;80;21007;-77
2022/01/13 10:44:23;;;;;;;42.98;17.92;;;;;;;-2.75;64.23;99473.48;1757318;80;21426;-79
2022/01/13 10:47:05;;;;;;;37.53;17.43;;;;;;;-2.75;64.23;99473.48;1754915;80;20988;-77
2022/01/13 10:49:38;;;;;;;38.48;17.80;;;;;;;-2.76;62.49;99482.96;1753664;80;21202;-77
2022/01/13 10:52:26;;;;;;;46.85;19.17;;;;;;;-2.77;63.63;99485.48;1762272;80;20991;-76
2022/01/13 10:55:10;;;;;;;39.40;18.52;;;;;;;-2.69;63.89;99478.95;1759759;80;21115;-77
2022/01/13 10:57:41;;;;;;;45.30;19.12;;;;;;;-2.75;64.04;99475.65;1762366;80;20999;-77
2022/01/13 11:00:21;;;;;;;36.93;19.23;;;;;;;-2.76;64.39;99481.66;1759930;80;21386;-78
2022/01/13 11:03:07;;;;;;;41.75;19.48;;;;;;;-2.69;64.55;99475.06;1757967;80;21417;-77
2022/01/13 11:05:47;;;;;;;43.48;18.82;;;;;;;-2.70;63.73;99481.08;1756494;80;20995;-78
2022/01/13 11:08:30;;;;;;;43.28;19.75;;;;;;;-2.64;64.47;99476.17;1754405;80;20976;-79
2022/01/13 11:11:00;;;;;;;44.15;19.32;;;;;;;-2.60;64.36;99493.67;1755344;80;21039;-78
2022/01/13 11:13:30;;;;;;;53.15;23.92;;;;;;;-2.56;64.53;99507.67;1761511;80;20960;-78
2022/01/13 11:15:57;;;;;;;53.75;25.62;;;;;;;-2.55;64.04;99515.55;1720217;82;21032;-78
2022/01/13 11:18:28;;;;;;;68.83;29.52;;;;;;;-2.61;64.08;99513.96;1726369;82;21384;-78
2022/01/13 11:20:56;;;;;;;69.58;30.35;;;;;;;-2.65;63.92;99523.28;1731908;82;21043;-78
2022/01/13 11:23:25;;;;;;;70.47;30.00;;;;;;;-2.72;63.48;99526.41;1732799;82;20948;-78
2022/01/13 11:25:55;;;;;;;75.70;30.72;;;;;;;-2.79;63.64;99514.84;1734027;82;21034;-78
2022/01/13 11:28:22;;;;;;;65.37;29.23;;;;;;;-2.76;64.15;99524.88;1726553;82;21001;-78
2022/01/13 11:30:52;;;;;;;61.95;28.95;;;;;;;-2.78;64.28;99502.77;1726489;82;21382;-77
2022/01/13 11:33:22;;;;;;;64.45;27.65;;;;;;;-2.76;64.16;99495.03;1686594;84;21028;-77
2022/01/13 11:35:58;;;;;;;58.63;27.22;;;;;;;-2.80;63.59;99481.93;1717979;82;21002;-77
2022/01/13 11:38:25;;;;;;;53.98;24.92;;;;;;;-2.86;63.62;99483.34;1723664;82;21019;-77
2022/01/13 11:41:05;;;;;;;63.92;28.38;;;;;;;-2.94;63.98;99464.80;1725460;82;21078;-78
2022/01/13 11:43:38;;;;;;;56.98;24.87;;;;;;;-2.92;64.52;99480.92;1726934;82;21476;-77
2022/01/13 11:46:26;;;;;;;63.00;25.85;;;;;;;-2.85;64.81;99481.22;1722099;83;21027;-78